createdAt,value
2023-05-10T00:01:37.870Z,66.73
2023-05-10T00:04:04.954Z,65.52
2023-05-10T00:06:32.524Z,65.86
2023-05-10T00:08:59.097Z,66.12
2023-05-10T00:11:25.769Z,66.32
2023-05-10T00:13:52.467Z,65.57
2023-05-10T00:16:19.086Z,64.60
2023-05-10T00:18:45.720Z,65.55
2023-05-10T00:21:12.260Z,64.22
2023-05-10T00:23:39.104Z,64.29
2023-05-10T00:26:05.675Z,64.60
2023-05-10T00:28:32.264Z,64.56
2023-05-10T00:30:58.805Z,65.00
2023-05-10T00:33:25.342Z,65.38
2023-05-10T00:35:52.515Z,64.51
2023-05-10T00:38:19.108Z,65.76
2023-05-10T00:40:45.652Z,65.25
2023-05-10T00:43:12.360Z,65.46
2023-05-10T00:45:40.985Z,64.34
2023-05-10T00:48:07.711Z,65.77
2023-05-10T00:50:34.917Z,65.32
2023-05-10T00:53:02.186Z,65.03
2023-05-10T00:55:28.986Z,65.62
2023-05-10T00:57:55.787Z,66.08
2023-05-10T01:00:22.595Z,66.79
2023-05-10T01:02:50.637Z,66.87
2023-05-10T01:05:17.466Z,66.61
2023-05-10T01:07:44.095Z,65.88
2023-05-10T01:10:11.568Z,66.45
2023-05-10T01:12:41.208Z,65.79
2023-05-10T01:15:09.479Z,66.78
2023-05-10T01:17:40.667Z,66.52
2023-05-10T01:20:11.590Z,67.19
2023-05-10T01:22:57.454Z,67.67
2023-05-10T01:25:33.160Z,66.29
2023-05-10T01:28:17.809Z,66.51
2023-05-10T01:30:53.308Z,66.69
2023-05-10T01:33:49.855Z,67.20
2023-05-10T01:36:27.208Z,67.96
2023-05-10T01:39:12.633Z,67.75
2023-05-10T01:42:04.599Z,68.13
2023-05-10T01:44:41.313Z,69.72
2023-05-10T01:47:18.221Z,70.19
2023-05-10T01:49:48.634Z,69.46
2023-05-10T01:52:20.277Z,69.06
2023-05-10T01:54:55.092Z,68.99
2023-05-10T01:57:26.805Z,69.64
2023-05-10T01:59:54.098Z,70.09
2023-05-10T02:02:22.310Z,69.41
2023-05-10T02:04:51.638Z,68.74
2023-05-10T02:07:19.244Z,68.86
2023-05-10T02:09:50.105Z,68.64
2023-05-10T02:12:19.000Z,68.97
2023-05-10T02:14:47.272Z,69.12
2023-05-10T02:17:15.225Z,69.59
2023-05-10T02:19:43.200Z,69.15
2023-05-10T02:22:11.326Z,69.53
2023-05-10T02:24:39.555Z,69.81
2023-05-10T02:27:07.231Z,69.35
2023-05-10T02:29:34.654Z,69.38
2023-05-10T02:32:02.613Z,70.14
2023-05-10T02:34:29.969Z,70.37
2023-05-10T02:36:57.491Z,69.68
2023-05-10T02:39:25.803Z,71.69
2023-05-10T02:41:54.558Z,71.30
2023-05-10T02:44:23.648Z,70.69
2023-05-10T02:46:50.648Z,70.80
2023-05-10T02:49:17.482Z,71.15
2023-05-10T02:51:52.483Z,71.27
2023-05-10T02:54:27.499Z,71.72
2023-05-10T02:56:58.182Z,72.22
2023-05-10T02:59:24.760Z,73.92
2023-05-10T03:01:51.383Z,72.88
2023-05-10T03:04:18.021Z,73.43
2023-05-10T03:06:45.296Z,74.81
2023-05-10T03:09:13.599Z,74.16
2023-05-10T03:12:21.496Z,74.32
2023-05-10T03:15:27.820Z,72.70
2023-05-10T03:18:10.476Z,72.86
2023-05-10T03:20:44.225Z,74.19
2023-05-10T03:23:20.568Z,76.30
2023-05-10T03:25:49.867Z,75.92
2023-05-10T03:28:17.643Z,75.09
2023-05-10T03:30:44.765Z,75.45
2023-05-10T03:33:11.785Z,75.34
2023-05-10T03:35:38.354Z,75.17
2023-05-10T03:38:04.842Z,73.65
2023-05-10T03:40:33.024Z,73.44
2023-05-10T03:43:00.435Z,73.08
2023-05-10T03:45:27.574Z,73.32
2023-05-10T03:47:55.030Z,73.04
2023-05-10T03:50:21.999Z,73.72
2023-05-10T03:52:49.319Z,73.36
2023-05-10T03:55:16.170Z,73.10
2023-05-10T03:57:43.061Z,72.50
2023-05-10T04:00:10.712Z,72.38
2023-05-10T04:02:37.828Z,72.03
2023-05-10T04:05:05.352Z,73.50
2023-05-10T04:07:31.885Z,74.42
2023-05-10T04:09:58.431Z,74.90
2023-05-10T04:12:25.281Z,73.85
2023-05-10T04:14:52.136Z,72.91
2023-05-10T04:17:18.671Z,73.53
2023-05-10T04:19:45.332Z,72.63
2023-05-10T04:22:11.841Z,72.67
2023-05-10T04:24:38.358Z,73.63
2023-05-10T04:27:04.877Z,73.72
2023-05-10T04:29:31.966Z,73.12
2023-05-10T04:31:58.771Z,72.93
2023-05-10T04:34:25.436Z,72.22
2023-05-10T04:36:51.989Z,72.20
2023-05-10T04:39:18.496Z,71.72
2023-05-10T04:41:45.016Z,73.04
2023-05-10T04:44:11.554Z,71.76
2023-05-10T04:46:38.181Z,72.05
2023-05-10T04:49:04.723Z,71.12
2023-05-10T04:51:32.307Z,70.28
2023-05-10T04:54:06.214Z,70.04
2023-05-10T04:56:33.731Z,69.97
2023-05-10T04:59:00.385Z,69.16
2023-05-10T05:01:27.094Z,69.18
2023-05-10T05:03:53.973Z,69.04
2023-05-10T05:06:22.108Z,68.86
2023-05-10T05:08:50.412Z,68.69
2023-05-10T05:11:18.109Z,68.29
2023-05-10T05:13:44.877Z,67.76
2023-05-10T05:16:12.457Z,67.54
2023-05-10T05:18:39.388Z,67.47
2023-05-10T05:21:16.854Z,67.05
2023-05-10T05:23:43.592Z,66.58
2023-05-10T05:26:10.601Z,66.33
2023-05-10T05:28:38.488Z,66.42
2023-05-10T05:31:06.604Z,66.19
2023-05-10T05:33:33.267Z,66.38
2023-05-10T05:36:02.432Z,65.06
2023-05-10T05:38:29.120Z,65.81
2023-05-10T05:40:56.053Z,64.95
2023-05-10T05:43:22.611Z,65.25
2023-05-10T05:45:49.173Z,65.20
2023-05-10T05:48:15.813Z,64.69
2023-05-10T05:50:42.393Z,64.56
2023-05-10T05:53:09.685Z,64.84
2023-05-10T05:55:36.422Z,64.10
2023-05-10T05:58:03.493Z,64.24
2023-05-10T06:00:30.044Z,63.79
2023-05-10T06:02:56.594Z,63.63
2023-05-10T06:05:23.358Z,63.56
2023-05-10T06:07:49.960Z,63.08
2023-05-10T06:10:16.537Z,62.48
2023-05-10T06:12:43.071Z,62.18
2023-05-10T06:15:10.344Z,62.60
2023-05-10T06:17:36.899Z,62.60
2023-05-10T06:20:04.039Z,62.42
2023-05-10T06:22:30.613Z,61.83
2023-05-10T06:24:57.137Z,60.93
2023-05-10T06:27:24.165Z,60.93
2023-05-10T06:29:56.401Z,60.75
2023-05-10T06:32:26.293Z,60.05
2023-05-10T06:34:53.167Z,60.09
2023-05-10T06:37:19.716Z,59.61
2023-05-10T06:39:46.331Z,59.71
2023-05-10T06:42:12.946Z,59.33
2023-05-10T06:44:39.508Z,59.04
2023-05-10T06:47:06.102Z,58.82
2023-05-10T06:49:32.649Z,58.48
2023-05-10T06:51:59.284Z,58.16
2023-05-10T06:54:25.841Z,57.96
2023-05-10T06:56:52.772Z,57.92
2023-05-10T06:59:20.470Z,57.72
2023-05-10T07:01:47.120Z,57.38
2023-05-10T07:04:14.689Z,57.35
2023-05-10T07:06:41.332Z,57.19
2023-05-10T07:09:08.685Z,56.75
2023-05-10T07:11:35.539Z,56.85
2023-05-10T07:14:02.092Z,56.15
2023-05-10T07:16:28.663Z,55.86
2023-05-10T07:18:55.412Z,55.81
2023-05-10T07:21:22.106Z,56.09
2023-05-10T07:23:48.712Z,55.48
2023-05-10T07:26:15.927Z,55.86
2023-05-10T07:28:43.094Z,55.58
2023-05-10T07:31:09.724Z,55.23
2023-05-10T07:33:36.353Z,54.91
2023-05-10T07:36:02.971Z,55.19
2023-05-10T07:38:29.660Z,54.59
2023-05-10T07:40:56.205Z,54.09
2023-05-10T07:43:22.767Z,53.96
2023-05-10T07:45:49.656Z,54.34
2023-05-10T07:48:16.495Z,53.85
2023-05-10T07:50:43.010Z,54.11
2023-05-10T07:53:09.567Z,53.76
2023-05-10T07:55:36.370Z,54.01
2023-05-10T07:58:03.007Z,53.28
2023-05-10T08:00:29.587Z,53.26
2023-05-10T08:02:56.273Z,53.38
2023-05-10T08:05:22.876Z,52.57
2023-05-10T08:07:49.438Z,52.28
2023-05-10T08:10:16.046Z,51.65
2023-05-10T08:12:42.586Z,51.54
2023-05-10T08:15:09.660Z,51.54
2023-05-10T08:17:36.264Z,52.13
2023-05-10T08:20:02.889Z,52.11
2023-05-10T08:22:29.484Z,51.54
2023-05-10T08:24:56.036Z,50.77
2023-05-10T08:27:22.851Z,49.70
2023-05-10T08:29:50.517Z,49.30
2023-05-10T08:32:17.724Z,48.43
2023-05-10T08:34:44.293Z,48.14
2023-05-10T08:37:14.071Z,48.14
2023-05-10T08:39:41.078Z,48.25
2023-05-10T08:42:09.296Z,48.90
2023-05-10T08:44:37.576Z,48.86
2023-05-10T08:47:07.942Z,48.84
2023-05-10T08:49:35.069Z,48.90
2023-05-10T08:52:05.396Z,48.84
2023-05-10T08:54:35.546Z,49.05
2023-05-10T08:57:02.436Z,48.45
2023-05-10T08:59:29.635Z,48.40
2023-05-10T09:02:01.632Z,48.13
2023-05-10T09:04:29.161Z,47.48
2023-05-10T09:06:56.029Z,47.41
2023-05-10T09:09:22.926Z,46.81
2023-05-10T09:11:49.709Z,46.10
2023-05-10T09:14:16.838Z,45.83
2023-05-10T09:16:43.753Z,46.19
2023-05-10T09:19:10.593Z,45.72
2023-05-10T09:21:39.286Z,45.01
2023-05-10T09:24:07.767Z,44.67
2023-05-10T09:26:34.592Z,44.11
2023-05-10T09:29:01.512Z,44.05
2023-05-10T09:31:49.160Z,43.26
2023-05-10T09:34:30.575Z,44.16
2023-05-10T09:37:02.020Z,44.20
2023-05-10T09:39:38.673Z,43.49
2023-05-10T09:42:11.922Z,43.47
2023-05-10T09:44:39.296Z,43.41
2023-05-10T09:47:05.870Z,43.31
2023-05-10T09:49:32.562Z,43.35
2023-05-10T09:52:07.129Z,43.04
2023-05-10T09:54:34.960Z,42.97
2023-05-10T09:57:02.122Z,42.24
2023-05-10T09:59:29.794Z,42.78
2023-05-10T10:02:01.126Z,43.17
2023-05-10T10:04:28.254Z,42.61
2023-05-10T10:07:05.429Z,42.70
2023-05-10T10:09:32.943Z,42.99
2023-05-10T10:12:00.687Z,44.18
2023-05-10T10:14:27.423Z,43.96
2023-05-10T10:17:06.808Z,43.64
2023-05-10T10:19:38.732Z,43.53
2023-05-10T10:22:06.129Z,43.61
2023-05-10T10:24:32.870Z,42.37
2023-05-10T10:27:25.837Z,43.63
2023-05-10T10:30:12.469Z,44.07
2023-05-10T10:32:49.175Z,43.51
2023-05-10T10:35:17.015Z,43.66
2023-05-10T10:37:48.331Z,43.17
2023-05-10T10:40:35.197Z,43.80
2023-05-10T10:43:28.049Z,43.61
2023-05-10T10:46:16.982Z,43.26
2023-05-10T10:49:08.861Z,42.83
2023-05-10T10:51:39.483Z,43.09
2023-05-10T10:54:12.845Z,42.74
2023-05-10T10:56:39.317Z,42.83
2023-05-10T10:59:05.853Z,43.72
2023-05-10T11:01:38.864Z,42.99
2023-05-10T11:04:05.486Z,41.85
2023-05-10T11:06:34.341Z,41.55
2023-05-10T11:09:06.802Z,40.48
2023-05-10T11:11:33.381Z,40.32
2023-05-10T11:14:05.302Z,40.82
2023-05-10T11:16:43.846Z,40.50
2023-05-10T11:19:12.933Z,41.25
2023-05-10T11:21:51.514Z,41.21
2023-05-10T11:24:21.890Z,40.71
2023-05-10T11:26:51.361Z,41.09
2023-05-10T11:29:18.028Z,41.85
2023-05-10T11:31:46.453Z,41.36
2023-05-10T11:34:15.365Z,40.34
2023-05-10T11:36:41.880Z,39.97
2023-05-10T11:39:08.625Z,39.02
2023-05-10T11:41:35.190Z,39.40
2023-05-10T11:44:02.855Z,39.90
2023-05-10T11:46:29.563Z,40.11
2023-05-10T11:49:02.688Z,40.31
2023-05-10T11:51:29.317Z,40.43
2023-05-10T11:53:57.262Z,39.63
2023-05-10T11:56:24.502Z,39.69
2023-05-10T11:58:58.424Z,39.30
2023-05-10T12:01:27.559Z,38.67
2023-05-10T12:03:59.698Z,38.05
2023-05-10T12:06:33.589Z,38.07
2023-05-10T12:09:00.707Z,37.48
2023-05-10T12:11:29.157Z,37.78
2023-05-10T12:13:57.190Z,37.72
2023-05-10T12:16:26.014Z,37.45
2023-05-10T12:18:54.292Z,37.31
2023-05-10T12:21:22.495Z,37.11
2023-05-10T12:23:54.057Z,36.60
2023-05-10T12:26:25.484Z,37.03
2023-05-10T12:28:52.059Z,37.04
2023-05-10T12:31:18.818Z,36.52
2023-05-10T12:33:47.344Z,37.60
2023-05-10T12:36:15.865Z,38.38
2023-05-10T12:38:44.558Z,37.71
2023-05-10T12:41:14.061Z,36.87
2023-05-10T12:43:41.917Z,36.79
2023-05-10T12:46:12.752Z,36.81
2023-05-10T12:48:40.987Z,36.53
2023-05-10T12:51:13.849Z,36.38
2023-05-10T12:53:43.388Z,36.42
2023-05-10T12:56:11.170Z,36.08
2023-05-10T12:58:37.689Z,36.03
2023-05-10T13:01:05.743Z,36.32
2023-05-10T13:03:32.709Z,37.28
2023-05-10T13:05:59.311Z,36.90
2023-05-10T13:08:26.002Z,36.25
2023-05-10T13:10:52.836Z,36.35
2023-05-10T13:13:19.418Z,36.60
2023-05-10T13:15:46.001Z,36.87
2023-05-10T13:18:12.640Z,36.81
2023-05-10T13:20:39.393Z,36.80
2023-05-10T13:23:06.107Z,36.36
2023-05-10T13:25:32.648Z,35.65
2023-05-10T13:27:59.181Z,36.00
2023-05-10T13:30:26.115Z,36.05
2023-05-10T13:32:52.710Z,35.87
2023-05-10T13:35:19.349Z,35.79
2023-05-10T13:37:45.853Z,34.98
2023-05-10T13:40:12.671Z,35.08
2023-05-10T13:42:39.311Z,35.06
2023-05-10T13:45:06.512Z,34.86
2023-05-10T13:47:33.116Z,34.66
2023-05-10T13:49:59.652Z,34.50
2023-05-10T13:52:27.358Z,34.92
2023-05-10T13:54:56.006Z,34.72
2023-05-10T13:57:23.122Z,34.91
2023-05-10T13:59:49.953Z,34.43
2023-05-10T14:02:16.489Z,33.59
2023-05-10T14:04:43.119Z,33.37
2023-05-10T14:07:09.679Z,32.78
2023-05-10T14:09:36.247Z,33.23
2023-05-10T14:12:03.116Z,34.00
2023-05-10T14:14:30.483Z,34.02
2023-05-10T14:16:57.007Z,33.87
2023-05-10T14:19:23.602Z,34.42
2023-05-10T14:21:50.136Z,34.92
2023-05-10T14:24:16.640Z,35.00
2023-05-10T14:26:43.160Z,34.91
2023-05-10T14:29:11.591Z,34.95
2023-05-10T14:31:39.104Z,34.56
2023-05-10T14:34:06.795Z,34.48
2023-05-10T14:36:33.496Z,34.99
2023-05-10T14:39:00.291Z,34.99
2023-05-10T14:41:26.819Z,34.32
2023-05-10T14:43:53.697Z,33.36
2023-05-10T14:46:20.824Z,32.61
2023-05-10T14:48:47.519Z,33.79
2023-05-10T14:51:14.306Z,34.89
2023-05-10T14:53:41.144Z,35.93
2023-05-10T14:56:08.100Z,36.71
2023-05-10T14:58:34.713Z,36.79
2023-05-10T15:01:01.771Z,37.42
2023-05-10T15:03:29.156Z,37.29
2023-05-10T15:05:58.562Z,37.16
2023-05-10T15:08:28.815Z,37.29
2023-05-10T15:10:56.863Z,37.36
2023-05-10T15:13:23.426Z,37.87
2023-05-10T15:15:49.971Z,37.92
2023-05-10T15:18:17.746Z,38.25
2023-05-10T15:20:44.353Z,38.26
2023-05-10T15:23:10.893Z,38.36
2023-05-10T15:25:38.495Z,38.78
2023-05-10T15:28:05.474Z,39.20
2023-05-10T15:30:32.171Z,39.40
2023-05-10T15:32:58.910Z,39.40
2023-05-10T15:35:26.986Z,39.62
2023-05-10T15:37:53.536Z,39.88
2023-05-10T15:40:20.410Z,39.83
2023-05-10T15:42:46.926Z,39.75
2023-05-10T15:45:13.971Z,39.69
2023-05-10T15:47:40.676Z,39.94
2023-05-10T15:50:08.444Z,40.17
2023-05-10T15:52:35.185Z,40.53
2023-05-10T15:55:01.722Z,40.48
2023-05-10T15:57:28.262Z,40.76
2023-05-10T15:59:54.848Z,40.77
2023-05-10T16:02:22.624Z,41.02
2023-05-10T16:04:49.410Z,40.62
2023-05-10T16:07:15.974Z,41.02
2023-05-10T16:09:42.561Z,40.70
2023-05-10T16:12:09.207Z,40.37
2023-05-10T16:14:35.826Z,40.50
2023-05-10T16:17:04.931Z,40.61
2023-05-10T16:19:31.749Z,40.35
2023-05-10T16:21:58.424Z,40.32
2023-05-10T16:24:25.902Z,40.33
2023-05-10T16:26:52.667Z,39.92
2023-05-10T16:29:19.220Z,39.87
2023-05-10T16:31:46.393Z,40.09
2023-05-10T16:34:13.160Z,40.24
2023-05-10T16:36:39.697Z,40.24
2023-05-10T16:39:06.345Z,40.42
2023-05-10T16:41:34.341Z,40.79
2023-05-10T16:44:01.449Z,41.03
2023-05-10T16:46:28.026Z,41.22
2023-05-10T16:48:54.638Z,41.33
2023-05-10T16:51:21.419Z,41.64
2023-05-10T16:53:47.965Z,41.84
2023-05-10T16:56:14.591Z,41.76
2023-05-10T16:58:41.263Z,42.07
2023-05-10T17:01:07.865Z,42.15
2023-05-10T17:03:34.582Z,42.44
2023-05-10T17:06:01.343Z,42.39
2023-05-10T17:08:27.939Z,42.63
2023-05-10T17:10:54.481Z,42.87
2023-05-10T17:13:21.018Z,42.77
2023-05-10T17:15:47.598Z,43.00
2023-05-10T17:18:14.265Z,43.31
2023-05-10T17:20:44.294Z,43.35
2023-05-10T17:23:11.489Z,43.44
2023-05-10T17:25:38.096Z,43.25
2023-05-10T17:28:04.788Z,43.13
2023-05-10T17:30:32.735Z,43.48
2023-05-10T17:33:00.226Z,44.06
2023-05-10T17:35:27.574Z,43.95
2023-05-10T17:37:54.283Z,43.62
2023-05-10T17:40:20.956Z,44.06
2023-05-10T17:42:47.582Z,44.20
2023-05-10T17:45:14.843Z,44.82
2023-05-10T17:47:41.563Z,44.65
2023-05-10T17:50:10.096Z,45.19
2023-05-10T17:52:36.657Z,45.31
2023-05-10T17:55:03.285Z,45.27
2023-05-10T17:57:29.857Z,45.95
2023-05-10T17:59:56.452Z,46.13
2023-05-10T18:02:23.071Z,45.70
2023-05-10T18:04:49.817Z,46.48
2023-05-10T18:07:16.600Z,45.95
2023-05-10T18:09:43.112Z,46.23
2023-05-10T18:12:09.652Z,46.57
2023-05-10T18:14:41.000Z,46.70
2023-05-10T18:17:09.929Z,47.05
2023-05-10T18:19:36.729Z,46.89
2023-05-10T18:22:03.325Z,47.33
2023-05-10T18:24:40.299Z,47.12
2023-05-10T18:27:08.841Z,47.36
2023-05-10T18:29:36.371Z,47.40
2023-05-10T18:32:03.175Z,47.51
2023-05-10T18:34:29.697Z,47.55
2023-05-10T18:36:56.417Z,47.71
2023-05-10T18:39:23.583Z,48.02
2023-05-10T18:41:50.267Z,47.67
2023-05-10T18:44:17.009Z,47.87
2023-05-10T18:46:43.688Z,47.91
2023-05-10T18:49:10.303Z,47.91
2023-05-10T18:51:36.864Z,48.31
2023-05-10T18:54:03.698Z,47.98
2023-05-10T18:56:30.412Z,48.39
2023-05-10T18:58:57.012Z,48.73
2023-05-10T19:01:23.582Z,49.26
2023-05-10T19:03:50.127Z,49.26
2023-05-10T19:06:16.683Z,49.39
2023-05-10T19:08:43.216Z,49.65
2023-05-10T19:11:09.789Z,49.81
2023-05-10T19:13:36.444Z,49.84
2023-05-10T19:16:05.092Z,49.98
2023-05-10T19:18:32.642Z,49.88
2023-05-10T19:21:02.121Z,49.82
2023-05-10T19:23:28.662Z,50.17
2023-05-10T19:25:55.219Z,50.14
2023-05-10T19:28:22.327Z,50.35
2023-05-10T19:30:50.313Z,50.51
2023-05-10T19:33:18.513Z,50.49
2023-05-10T19:35:45.600Z,50.59
2023-05-10T19:38:12.201Z,50.46
2023-05-10T19:40:38.772Z,50.38
2023-05-10T19:43:05.291Z,50.50
2023-05-10T19:45:33.728Z,50.54
2023-05-10T19:48:01.441Z,50.58
2023-05-10T19:50:28.109Z,50.66
2023-05-10T19:52:54.689Z,50.80
2023-05-10T19:55:31.999Z,50.86
2023-05-10T19:58:02.386Z,50.95
2023-05-10T20:00:29.279Z,51.05
2023-05-10T20:02:55.996Z,51.36
2023-05-10T20:05:22.658Z,51.18
2023-05-10T20:07:49.382Z,51.41
2023-05-10T20:10:17.470Z,51.45
2023-05-10T20:12:54.007Z,51.19
2023-05-10T20:15:22.174Z,51.45
2023-05-10T20:17:51.134Z,51.34
2023-05-10T20:20:18.121Z,51.69
2023-05-10T20:22:44.949Z,51.66
2023-05-10T20:25:11.963Z,51.67
2023-05-10T20:27:38.626Z,51.97
2023-05-10T20:30:06.192Z,51.80
2023-05-10T20:32:34.286Z,51.96
2023-05-10T20:35:01.579Z,51.99
2023-05-10T20:37:28.699Z,52.12
2023-05-10T20:39:55.450Z,52.20
2023-05-10T20:42:23.065Z,52.53
2023-05-10T20:44:50.191Z,52.63
2023-05-10T20:47:17.612Z,52.93
2023-05-10T20:49:44.244Z,52.72
2023-05-10T20:52:10.866Z,52.56
2023-05-10T20:54:37.377Z,52.98
2023-05-10T20:57:03.886Z,53.09
2023-05-10T20:59:30.496Z,53.30
2023-05-10T21:01:57.614Z,53.42
2023-05-10T21:04:25.756Z,53.63
2023-05-10T21:06:53.065Z,53.75
2023-05-10T21:09:19.708Z,53.74
2023-05-10T21:11:46.463Z,54.00
2023-05-10T21:14:13.098Z,53.85
2023-05-10T21:16:39.992Z,53.96
2023-05-10T21:19:07.620Z,54.02
2023-05-10T21:21:34.634Z,54.46
2023-05-10T21:24:01.270Z,54.20
2023-05-10T21:26:27.778Z,54.34
2023-05-10T21:28:54.464Z,54.20
2023-05-10T21:31:21.332Z,54.38
2023-05-10T21:33:48.003Z,54.28
2023-05-10T21:36:14.626Z,54.00
2023-05-10T21:38:44.173Z,54.00
2023-05-10T21:41:11.068Z,53.92
2023-05-10T21:43:37.691Z,53.72
2023-05-10T21:46:04.796Z,54.24
2023-05-10T21:48:31.435Z,54.18
2023-05-10T21:50:57.998Z,54.18
2023-05-10T21:53:24.638Z,54.35
2023-05-10T21:55:51.208Z,54.45
2023-05-10T21:58:17.910Z,54.48
2023-05-10T22:00:44.448Z,54.79
2023-05-10T22:03:11.256Z,54.71
2023-05-10T22:05:38.151Z,54.77
2023-05-10T22:08:08.269Z,54.90
2023-05-10T22:10:34.825Z,54.72
2023-05-10T22:13:01.446Z,55.16
2023-05-10T22:15:28.197Z,55.61
2023-05-10T22:17:54.931Z,55.25
2023-05-10T22:20:22.124Z,55.73
2023-05-10T22:22:48.899Z,56.04
2023-05-10T22:25:15.574Z,55.93
2023-05-10T22:27:42.142Z,55.80
2023-05-10T22:30:09.311Z,56.02
2023-05-10T22:32:35.911Z,55.99
2023-05-10T22:35:03.244Z,55.94
2023-05-10T22:37:30.037Z,56.20
2023-05-10T22:39:56.639Z,55.90
2023-05-10T22:42:23.182Z,56.48
2023-05-10T22:44:49.734Z,56.59
2023-05-10T22:47:16.648Z,55.97
2023-05-10T22:49:43.316Z,56.72
2023-05-10T22:52:10.161Z,56.30
2023-05-10T22:54:36.716Z,56.21
2023-05-10T22:57:03.402Z,56.88
2023-05-10T22:59:29.962Z,56.52
2023-05-10T23:01:56.511Z,56.10
2023-05-10T23:04:23.173Z,56.21
2023-05-10T23:06:49.805Z,56.60
2023-05-10T23:09:16.494Z,56.65
2023-05-10T23:11:43.067Z,56.32
2023-05-10T23:14:09.623Z,56.18
2023-05-10T23:16:36.702Z,56.23
2023-05-10T23:19:03.486Z,56.19
2023-05-10T23:21:32.203Z,55.99
2023-05-10T23:23:59.083Z,56.65
2023-05-10T23:26:25.746Z,55.92
2023-05-10T23:28:52.369Z,55.63
2023-05-10T23:31:19.091Z,56.16
2023-05-10T23:33:45.908Z,55.97
2023-05-10T23:36:12.491Z,56.90
2023-05-10T23:38:39.463Z,56.84
2023-05-10T23:41:06.235Z,56.96
2023-05-10T23:43:32.822Z,56.56
2023-05-10T23:45:59.588Z,56.91
2023-05-10T23:48:26.275Z,57.45
2023-05-10T23:50:53.076Z,57.77
2023-05-10T23:53:19.706Z,57.69
2023-05-10T23:55:46.455Z,57.93
2023-05-10T23:58:13.045Z,58.05
